Time,TemperatureF,DewpointF,PressureIn,WindDirection,WindDirectionDegrees,WindSpeedMPH,WindSpeedGustMPH,Humidity,HourlyPrecipIn,Conditions,Clouds,dailyrainin,SoftwareType,DateUTC
2013-11-29 00:01:00,21.7,21.0,30.47,West,270,0.0,0.0,97,0.00,,,0.00,meteobridge,2013-11-29 05:01:00,
2013-11-29 00:02:00,21.7,21.0,30.47,West,270,0.0,0.0,97,0.00,,,0.00,meteobridge,2013-11-29 05:02:00,
2013-11-29 00:03:00,21.7,21.0,30.46,West,270,0.0,0.0,97,0.00,,,0.00,meteobridge,2013-11-29 05:03:00,
2013-11-29 00:04:00,21.7,21.0,30.47,West,270,0.0,0.0,97,0.00,,,0.00,meteobridge,2013-11-29 05:04:00,
2013-11-29 00:05:00,21.7,21.0,30.47,West,270,0.0,0.0,97,0.00,,,0.00,meteobridge,2013-11-29 05:05:00,
2013-11-29 00:06:00,21.9,21.2,30.46,West,270,0.0,0.0,97,0.00,,,0.00,meteobridge,2013-11-29 05:06:00,
2013-11-29 00:12:00,21.7,21.0,30.46,West,270,0.0,0.0,97,0.00,,,0.00,meteobridge,2013-11-29 05:12:00,
2013-11-29 00:17:00,21.7,21.0,30.46,West,270,0.0,0.0,97,0.00,,,0.00,meteobridge,2013-11-29 05:17:00,
2013-11-29 00:23:00,21.7,21.0,30.46,West,270,0.0,0.0,97,0.00,,,0.00,meteobridge,2013-11-29 05:23:00,
2013-11-29 00:29:00,21.7,21.0,30.46,West,270,0.0,0.0,97,0.00,,,0.00,meteobridge,2013-11-29 05:29:00,
2013-11-29 00:34:00,21.6,20.8,30.45,West,270,0.0,0.0,97,0.00,,,0.00,meteobridge,2013-11-29 05:34:00,
2013-11-29 00:40:00,21.2,20.5,30.46,West,270,0.0,0.0,97,0.00,,,0.00,meteobridge,2013-11-29 05:40:00,
2013-11-29 00:46:00,21.4,20.7,30.46,West,270,0.0,0.0,97,0.00,,,0.00,meteobridge,2013-11-29 05:46:00,
2013-11-29 00:51:00,21.4,20.7,30.46,West,270,0.0,0.0,97,0.00,,,0.00,meteobridge,2013-11-29 05:51:00,
2013-11-29 00:57:00,20.3,19.8,30.45,West,270,0.0,0.0,98,0.00,,,0.00,meteobridge,2013-11-29 05:57:00,
2013-11-29 01:02:00,20.5,19.8,30.46,West,270,0.0,0.0,97,0.00,,,0.00,meteobridge,2013-11-29 06:02:00,
2013-11-29 01:08:00,21.4,20.7,30.46,West,270,0.0,0.0,97,0.00,,,0.00,meteobridge,2013-11-29 06:08:00,
2013-11-29 01:14:00,21.2,20.5,30.46,West,270,0.0,0.0,97,0.00,,,0.00,meteobridge,2013-11-29 06:14:00,
2013-11-29 01:19:00,21.2,20.5,30.46,West,270,0.0,0.0,97,0.00,,,0.00,meteobridge,2013-11-29 06:19:00,
2013-11-29 01:25:00,20.7,20.1,30.46,West,270,0.0,0.0,98,0.00,,,0.00,meteobridge,2013-11-29 06:25:00,
2013-11-29 01:31:00,20.5,19.9,30.46,West,270,0.0,0.0,98,0.00,,,0.00,meteobridge,2013-11-29 06:31:00,
2013-11-29 01:36:00,20.5,19.9,30.46,West,270,0.0,0.0,98,0.00,,,0.00,meteobridge,2013-11-29 06:36:00,
2013-11-29 01:42:00,20.5,19.9,30.46,West,270,0.0,0.0,98,0.00,,,0.00,meteobridge,2013-11-29 06:42:00,
2013-11-29 01:48:00,20.1,19.6,30.46,West,270,0.0,0.0,98,0.00,,,0.00,meteobridge,2013-11-29 06:48:00,
2013-11-29 01:53:00,20.5,19.9,30.46,West,270,0.0,0.0,98,0.00,,,0.00,meteobridge,2013-11-29 06:53:00,
2013-11-29 01:59:00,20.5,19.9,30.46,West,270,0.0,0.0,98,0.00,,,0.00,meteobridge,2013-11-29 06:59:00,
2013-11-29 02:05:00,20.3,19.8,30.46,West,270,0.0,0.0,98,0.00,,,0.00,meteobridge,2013-11-29 07:05:00,
2013-11-29 02:10:00,20.3,19.8,30.46,West,270,0.0,0.0,98,0.00,,,0.00,meteobridge,2013-11-29 07:10:00,
2013-11-29 02:15:00,20.3,19.8,30.46,West,270,0.0,0.0,98,0.00,,,0.00,meteobridge,2013-11-29 07:15:00,
2013-11-29 02:21:00,20.1,19.6,30.46,West,270,0.0,0.0,98,0.00,,,0.00,meteobridge,2013-11-29 07:21:00,
2013-11-29 02:26:00,20.3,19.8,30.46,West,270,0.0,0.0,98,0.00,,,0.00,meteobridge,2013-11-29 07:26:00,
2013-11-29 02:32:00,20.7,20.1,30.46,West,270,0.0,0.0,98,0.00,,,0.00,meteobridge,2013-11-29 07:32:00,
2013-11-29 02:38:00,20.5,19.9,30.46,West,270,0.0,0.0,98,0.00,,,0.00,meteobridge,2013-11-29 07:38:00,
2013-11-29 02:43:00,20.7,20.1,30.45,West,270,0.0,0.0,98,0.00,,,0.00,meteobridge,2013-11-29 07:43:00,
2013-11-29 02:49:00,20.7,20.1,30.46,West,270,0.0,0.0,98,0.00,,,0.00,meteobridge,2013-11-29 07:49:00,
2013-11-29 02:55:00,20.8,20.3,30.45,West,270,0.0,0.0,98,0.00,,,0.00,meteobridge,2013-11-29 07:55:00,
2013-11-29 03:00:00,20.5,19.9,30.46,West,270,0.0,0.0,98,0.00,,,0.00,meteobridge,2013-11-29 08:00:00,
2013-11-29 03:06:00,20.5,19.9,30.45,West,270,0.0,0.0,98,0.00,,,0.00,meteobridge,2013-11-29 08:06:00,
2013-11-29 03:11:00,20.1,19.6,30.45,West,270,0.0,0.0,98,0.00,,,0.00,meteobridge,2013-11-29 08:11:00,
2013-11-29 03:17:00,19.8,19.2,30.45,West,270,0.0,0.0,98,0.00,,,0.00,meteobridge,2013-11-29 08:17:00,
2013-11-29 03:23:00,19.9,19.4,30.45,West,270,0.0,0.0,98,0.00,,,0.00,meteobridge,2013-11-29 08:23:00,
2013-11-29 03:28:00,19.4,18.7,30.45,West,270,0.0,0.0,97,0.00,,,0.00,meteobridge,2013-11-29 08:28:00,
2013-11-29 03:34:00,19.8,19.0,30.45,West,270,0.0,0.0,97,0.00,,,0.00,meteobridge,2013-11-29 08:34:00,
2013-11-29 03:40:00,19.9,19.2,30.45,West,270,0.0,0.0,97,0.00,,,0.00,meteobridge,2013-11-29 08:40:00,
2013-11-29 03:45:00,19.6,18.9,30.45,West,270,0.0,0.0,97,0.00,,,0.00,meteobridge,2013-11-29 08:45:00,
2013-11-29 03:51:00,19.6,18.9,30.44,West,270,0.0,0.0,97,0.00,,,0.00,meteobridge,2013-11-29 08:51:00,
2013-11-29 03:57:00,19.8,19.0,30.45,West,270,0.0,0.0,97,0.00,,,0.00,meteobridge,2013-11-29 08:57:00,
2013-11-29 04:02:00,19.8,19.0,30.45,West,270,0.0,0.0,97,0.00,,,0.00,meteobridge,2013-11-29 09:02:00,
2013-11-29 04:08:00,19.9,19.2,30.45,West,270,0.0,0.0,97,0.00,,,0.00,meteobridge,2013-11-29 09:08:00,
2013-11-29 04:14:00,20.5,19.9,30.45,West,270,0.0,0.0,98,0.00,,,0.00,meteobridge,2013-11-29 09:14:00,
2013-11-29 04:19:00,20.3,19.8,30.45,West,270,0.0,0.0,98,0.00,,,0.00,meteobridge,2013-11-29 09:19:00,
2013-11-29 04:25:00,20.8,20.3,30.45,West,270,0.0,0.0,98,0.00,,,0.00,meteobridge,2013-11-29 09:25:00,
2013-11-29 04:30:00,20.5,19.9,30.45,West,270,0.0,0.0,98,0.00,,,0.00,meteobridge,2013-11-29 09:30:00,
2013-11-29 04:36:00,19.9,19.2,30.45,South,180,0.0,0.0,97,0.00,,,0.00,meteobridge,2013-11-29 09:36:00,
2013-11-29 04:42:00,19.6,18.9,30.46,South,180,0.0,0.0,97,0.00,,,0.00,meteobridge,2013-11-29 09:42:00,
2013-11-29 04:47:00,19.6,18.9,30.46,South,180,0.0,0.0,97,0.00,,,0.00,meteobridge,2013-11-29 09:47:00,
2013-11-29 04:52:00,19.4,18.5,30.46,South,180,0.0,0.0,96,0.00,,,0.00,meteobridge,2013-11-29 09:52:00,
2013-11-29 04:58:00,19.6,18.7,30.47,South,180,0.0,0.0,96,0.00,,,0.00,meteobridge,2013-11-29 09:58:00,
2013-11-29 05:04:00,19.6,18.7,30.47,South,180,0.0,0.0,96,0.00,,,0.00,meteobridge,2013-11-29 10:04:00,
2013-11-29 05:09:00,19.6,18.7,30.47,South,180,0.0,0.0,96,0.00,,,0.00,meteobridge,2013-11-29 10:09:00,
2013-11-29 05:15:00,19.6,18.7,30.46,South,180,0.0,0.0,96,0.00,,,0.00,meteobridge,2013-11-29 10:15:00,
2013-11-29 05:20:00,19.6,18.7,30.46,South,180,0.0,0.0,96,0.00,,,0.00,meteobridge,2013-11-29 10:20:00,
2013-11-29 05:26:00,19.6,18.7,30.46,South,180,0.0,0.0,96,0.00,,,0.00,meteobridge,2013-11-29 10:26:00,
2013-11-29 05:32:00,19.6,18.7,30.47,South,180,0.0,0.0,96,0.00,,,0.00,meteobridge,2013-11-29 10:32:00,
2013-11-29 05:37:00,19.4,18.5,30.47,South,180,0.0,0.0,96,0.00,,,0.00,meteobridge,2013-11-29 10:37:00,
2013-11-29 05:43:00,19.4,18.5,30.47,South,180,0.0,0.0,96,0.00,,,0.00,meteobridge,2013-11-29 10:43:00,
2013-11-29 05:49:00,19.0,17.1,30.47,South,180,0.0,0.0,92,0.00,,,0.00,meteobridge,2013-11-29 10:49:00,
2013-11-29 05:54:00,19.2,17.2,30.47,South,180,0.0,0.0,92,0.00,,,0.00,meteobridge,2013-11-29 10:54:00,
2013-11-29 06:00:00,19.0,17.1,30.48,South,180,0.0,0.0,92,0.00,,,0.00,meteobridge,2013-11-29 11:00:00,
2013-11-29 06:06:00,18.9,16.7,30.48,South,180,0.0,0.0,91,0.00,,,0.00,meteobridge,2013-11-29 11:06:00,
2013-11-29 06:11:00,19.0,16.9,30.48,South,180,0.0,0.0,91,0.00,,,0.00,meteobridge,2013-11-29 11:11:00,
2013-11-29 06:17:00,18.9,16.7,30.49,South,180,0.0,0.0,91,0.00,,,0.00,meteobridge,2013-11-29 11:17:00,
2013-11-29 06:23:00,19.0,16.9,30.48,South,180,0.0,0.0,91,0.00,,,0.00,meteobridge,2013-11-29 11:23:00,
2013-11-29 06:28:00,18.9,16.7,30.49,South,180,0.0,0.0,91,0.00,,,0.00,meteobridge,2013-11-29 11:28:00,
2013-11-29 06:33:00,18.7,16.5,30.49,South,180,0.0,0.0,91,0.00,,,0.00,meteobridge,2013-11-29 11:33:00,
2013-11-29 06:39:00,18.3,16.2,30.49,South,180,0.0,0.0,91,0.00,,,0.00,meteobridge,2013-11-29 11:39:00,
2013-11-29 06:44:00,18.1,15.6,30.50,South,180,0.0,0.0,90,0.00,,,0.00,meteobridge,2013-11-29 11:44:00,
2013-11-29 06:50:00,18.1,15.6,30.50,South,180,0.0,0.0,90,0.00,,,0.00,meteobridge,2013-11-29 11:50:00,
2013-11-29 06:56:00,18.1,15.6,30.50,South,180,0.0,0.0,90,0.00,,,0.00,meteobridge,2013-11-29 11:56:00,
2013-11-29 07:01:00,18.0,15.4,30.50,South,180,0.0,0.0,90,0.00,,,0.00,meteobridge,2013-11-29 12:01:00,
2013-11-29 07:07:00,18.0,15.4,30.50,South,180,0.0,0.0,90,0.00,,,0.00,meteobridge,2013-11-29 12:07:00,
2013-11-29 07:13:00,18.1,15.6,30.50,South,180,0.0,0.0,90,0.00,,,0.00,meteobridge,2013-11-29 12:13:00,
2013-11-29 07:18:00,18.1,15.6,30.51,South,180,0.0,0.0,90,0.00,,,0.00,meteobridge,2013-11-29 12:18:00,
2013-11-29 07:24:00,18.0,15.4,30.51,South,180,0.0,0.0,90,0.00,,,0.00,meteobridge,2013-11-29 12:24:00,
2013-11-29 07:29:00,18.5,16.0,30.52,South,180,0.0,0.0,90,0.00,,,0.00,meteobridge,2013-11-29 12:29:00,
2013-11-29 07:35:00,19.2,16.7,30.52,South,180,0.0,0.0,90,0.00,,,0.00,meteobridge,2013-11-29 12:35:00,
2013-11-29 07:41:00,19.2,16.7,30.52,South,180,0.0,0.0,90,0.00,,,0.00,meteobridge,2013-11-29 12:41:00,
2013-11-29 07:46:00,19.2,16.7,30.53,South,180,0.0,0.0,90,0.00,,,0.00,meteobridge,2013-11-29 12:46:00,
2013-11-29 07:52:00,19.2,16.7,30.53,South,180,0.0,0.0,90,0.00,,,0.00,meteobridge,2013-11-29 12:52:00,
2013-11-29 07:58:00,19.6,18.1,30.53,South,180,0.0,0.0,94,0.00,,,0.00,meteobridge,2013-11-29 12:58:00,
2013-11-29 08:03:00,19.8,18.3,30.53,South,180,0.0,0.0,94,0.00,,,0.00,meteobridge,2013-11-29 13:03:00,
2013-11-29 08:09:00,20.7,19.2,30.53,South,180,0.0,0.0,94,0.00,,,0.00,meteobridge,2013-11-29 13:09:00,
2013-11-29 08:15:00,24.4,22.6,30.54,South,180,0.0,0.0,93,0.00,,,0.00,meteobridge,2013-11-29 13:15:00,
2013-11-29 08:20:00,25.7,23.9,30.54,South,180,0.0,0.0,93,0.00,,,0.00,meteobridge,2013-11-29 13:20:00,
2013-11-29 08:26:00,25.9,24.1,30.55,South,180,0.0,0.0,93,0.00,,,0.00,meteobridge,2013-11-29 13:26:00,
2013-11-29 08:32:00,27.3,25.0,30.55,South,180,0.0,0.0,91,0.00,,,0.00,meteobridge,2013-11-29 13:32:00,
2013-11-29 08:37:00,27.3,24.8,30.55,East,90,0.0,1.6,90,0.00,,,0.00,meteobridge,2013-11-29 13:37:00,
2013-11-29 08:43:00,27.5,24.6,30.56,East,90,0.0,0.7,89,0.00,,,0.00,meteobridge,2013-11-29 13:43:00,
2013-11-29 08:48:00,32.7,30.7,30.56,East,90,0.0,0.0,92,0.00,,,0.00,meteobridge,2013-11-29 13:48:00,
2013-11-29 08:54:00,34.3,31.1,30.56,East,90,0.0,0.0,88,0.00,,,0.00,meteobridge,2013-11-29 13:54:00,
2013-11-29 09:00:00,31.5,27.1,30.56,East,90,0.0,1.6,84,0.00,,,0.00,meteobridge,2013-11-29 14:00:00,
2013-11-29 09:05:00,34.0,26.6,30.57,North,0,4.5,6.9,74,0.00,,,0.00,meteobridge,2013-11-29 14:05:00,
2013-11-29 09:11:00,35.6,25.3,30.57,West,270,5.4,5.4,66,0.00,,,0.00,meteobridge,2013-11-29 14:11:00,
2013-11-29 09:17:00,35.4,23.0,30.57,North,0,9.8,9.8,60,0.00,,,0.00,meteobridge,2013-11-29 14:17:00,
2013-11-29 09:22:00,36.5,22.6,30.57,North,0,3.1,3.8,57,0.00,,,0.00,meteobridge,2013-11-29 14:22:00,
2013-11-29 09:28:00,36.5,21.4,30.57,West,270,6.9,6.9,54,0.00,,,0.00,meteobridge,2013-11-29 14:28:00,
2013-11-29 09:34:00,37.0,20.1,30.57,West,270,3.8,6.0,50,0.00,,,0.00,meteobridge,2013-11-29 14:34:00,
2013-11-29 09:39:00,37.8,22.1,30.58,North,0,4.5,4.5,53,0.00,,,0.00,meteobridge,2013-11-29 14:39:00,
2013-11-29 09:45:00,39.4,24.1,30.58,North,0,5.4,5.4,54,0.00,,,0.00,meteobridge,2013-11-29 14:45:00,
2013-11-29 09:50:00,39.2,22.6,30.58,East,90,3.8,4.5,51,0.00,,,0.00,meteobridge,2013-11-29 14:50:00,
2013-11-29 09:55:00,39.6,21.6,30.58,North,0,5.4,6.9,48,0.00,,,0.00,meteobridge,2013-11-29 14:55:00,
2013-11-29 10:01:00,40.3,21.7,30.58,North,0,5.4,6.0,47,0.00,,,0.00,meteobridge,2013-11-29 15:01:00,
2013-11-29 10:07:00,40.6,21.0,30.58,North,0,3.1,7.6,45,0.00,,,0.00,meteobridge,2013-11-29 15:07:00,
2013-11-29 10:12:00,41.5,20.7,30.59,West,270,4.5,5.4,43,0.00,,,0.00,meteobridge,2013-11-29 15:12:00,
2013-11-29 10:18:00,42.1,21.7,30.59,East,90,3.8,5.4,44,0.00,,,0.00,meteobridge,2013-11-29 15:18:00,
2013-11-29 10:24:00,41.9,19.9,30.58,West,270,2.2,6.9,41,0.00,,,0.00,meteobridge,2013-11-29 15:24:00,
2013-11-29 10:29:00,42.8,20.1,30.59,SE,135,5.4,5.4,40,0.00,,,0.00,meteobridge,2013-11-29 15:29:00,
2013-11-29 10:35:00,43.5,20.8,30.59,NE,45,3.1,5.4,40,0.00,,,0.00,meteobridge,2013-11-29 15:35:00,
2013-11-29 10:40:00,44.2,21.4,30.59,North,0,3.8,3.8,40,0.00,,,0.00,meteobridge,2013-11-29 15:40:00,
2013-11-29 10:46:00,43.3,19.4,30.58,East,90,2.2,5.4,38,0.00,,,0.00,meteobridge,2013-11-29 15:46:00,
2013-11-29 10:52:00,42.6,19.9,30.58,East,90,5.4,9.2,40,0.00,,,0.00,meteobridge,2013-11-29 15:52:00,
2013-11-29 10:57:00,43.3,20.1,30.58,South,180,5.4,6.0,39,0.00,,,0.00,meteobridge,2013-11-29 15:57:00,
2013-11-29 11:03:00,44.4,19.0,30.58,West,270,6.0,6.0,36,0.00,,,0.00,meteobridge,2013-11-29 16:03:00,
2013-11-29 11:09:00,44.4,18.5,30.58,East,90,3.8,5.4,35,0.00,,,0.00,meteobridge,2013-11-29 16:09:00,
2013-11-29 11:14:00,46.4,18.9,30.58,NE,45,4.5,4.5,33,0.00,,,0.00,meteobridge,2013-11-29 16:14:00,
2013-11-29 11:20:00,46.0,19.2,30.58,South,180,3.8,4.5,34,0.00,,,0.00,meteobridge,2013-11-29 16:20:00,
2013-11-29 11:26:00,46.0,19.2,30.57,SW,225,3.8,4.5,34,0.00,,,0.00,meteobridge,2013-11-29 16:26:00,
2013-11-29 11:31:00,45.5,17.4,30.58,NE,45,7.6,7.6,32,0.00,,,0.00,meteobridge,2013-11-29 16:31:00,
2013-11-29 11:37:00,46.9,22.1,30.57,North,0,6.0,6.0,37,0.00,,,0.00,meteobridge,2013-11-29 16:37:00,
2013-11-29 11:43:00,44.2,16.9,30.57,SE,135,6.9,6.9,33,0.00,,,0.00,meteobridge,2013-11-29 16:43:00,
2013-11-29 11:48:00,45.1,17.8,30.57,East,90,5.4,5.4,33,0.00,,,0.00,meteobridge,2013-11-29 16:48:00,
2013-11-29 11:54:00,45.0,16.9,30.57,SW,225,3.1,4.5,32,0.00,,,0.00,meteobridge,2013-11-29 16:54:00,
2013-11-29 11:59:00,45.5,18.1,30.56,South,180,5.4,6.9,33,0.00,,,0.00,meteobridge,2013-11-29 16:59:00,
2013-11-29 12:05:00,45.5,18.7,30.56,South,180,5.4,6.9,34,0.00,,,0.00,meteobridge,2013-11-29 17:05:00,
2013-11-29 12:11:00,45.3,17.2,30.56,East,90,6.9,6.9,32,0.00,,,0.00,meteobridge,2013-11-29 17:11:00,
2013-11-29 12:16:00,45.9,17.6,30.56,West,270,9.2,9.2,32,0.00,,,0.00,meteobridge,2013-11-29 17:16:00,
2013-11-29 12:21:00,44.4,16.3,30.56,North,0,6.9,8.3,32,0.00,,,0.00,meteobridge,2013-11-29 17:21:00,
2013-11-29 12:27:00,46.2,20.1,30.55,East,90,6.9,7.6,35,0.00,,,0.00,meteobridge,2013-11-29 17:27:00,
2013-11-29 12:33:00,46.8,19.2,30.55,West,270,6.9,7.6,33,0.00,,,0.00,meteobridge,2013-11-29 17:33:00,
2013-11-29 12:38:00,47.5,19.0,30.56,North,0,6.0,6.9,32,0.00,,,0.00,meteobridge,2013-11-29 17:38:00,
2013-11-29 12:44:00,46.2,18.0,30.56,West,270,6.0,12.1,32,0.00,,,0.00,meteobridge,2013-11-29 17:44:00,
2013-11-29 12:49:00,46.6,18.3,30.55,South,180,1.6,9.2,32,0.00,,,0.00,meteobridge,2013-11-29 17:49:00,
2013-11-29 12:55:00,47.7,19.2,30.55,South,180,6.9,6.9,32,0.00,,,0.00,meteobridge,2013-11-29 17:55:00,
2013-11-29 13:01:00,48.4,19.9,30.55,SE,135,3.8,8.3,32,0.00,,,0.00,meteobridge,2013-11-29 18:01:00,
2013-11-29 13:06:00,47.5,19.8,30.55,East,90,6.0,6.0,33,0.00,,,0.00,meteobridge,2013-11-29 18:06:00,
2013-11-29 13:12:00,46.0,17.1,30.55,SW,225,3.1,9.2,31,0.00,,,0.00,meteobridge,2013-11-29 18:12:00,
2013-11-29 13:18:00,47.7,19.9,30.55,SW,225,7.6,8.3,33,0.00,,,0.00,meteobridge,2013-11-29 18:18:00,
2013-11-29 13:23:00,46.8,18.5,30.55,East,90,3.1,8.3,32,0.00,,,0.00,meteobridge,2013-11-29 18:23:00,
2013-11-29 13:29:00,46.6,18.3,30.55,North,0,6.0,7.6,32,0.00,,,0.00,meteobridge,2013-11-29 18:29:00,
2013-11-29 13:35:00,47.8,20.1,30.54,SE,135,4.5,6.9,33,0.00,,,0.00,meteobridge,2013-11-29 18:35:00,
2013-11-29 13:40:00,47.3,19.6,30.54,NW,315,8.3,13.0,33,0.00,,,0.00,meteobridge,2013-11-29 18:40:00,
2013-11-29 13:46:00,46.2,18.0,30.54,West,270,7.6,11.4,32,0.00,,,0.00,meteobridge,2013-11-29 18:46:00,
2013-11-29 13:52:00,49.3,20.7,30.55,East,90,3.8,3.8,32,0.00,,,0.00,meteobridge,2013-11-29 18:52:00,
2013-11-29 13:57:00,49.1,20.5,30.55,East,90,4.5,4.5,32,0.00,,,0.00,meteobridge,2013-11-29 18:57:00,
2013-11-29 14:03:00,47.5,19.0,30.55,West,270,7.6,8.3,32,0.00,,,0.00,meteobridge,2013-11-29 19:03:00,
2013-11-29 14:08:00,47.3,18.9,30.55,SE,135,3.1,7.6,32,0.00,,,0.00,meteobridge,2013-11-29 19:08:00,
2013-11-29 14:14:00,48.2,19.8,30.54,North,0,4.5,5.4,32,0.00,,,0.00,meteobridge,2013-11-29 19:14:00,
2013-11-29 14:20:00,47.5,19.8,30.55,North,0,6.9,10.7,33,0.00,,,0.00,meteobridge,2013-11-29 19:20:00,
2013-11-29 14:25:00,48.4,19.9,30.54,West,270,5.4,7.6,32,0.00,,,0.00,meteobridge,2013-11-29 19:25:00,
2013-11-29 14:31:00,47.7,19.2,30.54,North,0,3.1,7.6,32,0.00,,,0.00,meteobridge,2013-11-29 19:31:00,
2013-11-29 14:37:00,48.4,19.0,30.55,East,90,3.1,5.4,31,0.00,,,0.00,meteobridge,2013-11-29 19:37:00,
2013-11-29 14:42:00,50.2,21.4,30.54,North,0,5.4,5.4,32,0.00,,,0.00,meteobridge,2013-11-29 19:42:00,
2013-11-29 14:48:00,47.7,19.2,30.55,NE,45,4.5,9.8,32,0.00,,,0.00,meteobridge,2013-11-29 19:48:00,
2013-11-29 14:53:00,47.3,18.9,30.55,West,270,1.6,5.4,32,0.00,,,0.00,meteobridge,2013-11-29 19:53:00,
2013-11-29 14:59:00,47.7,19.2,30.55,West,270,4.5,4.5,32,0.00,,,0.00,meteobridge,2013-11-29 19:59:00,
2013-11-29 15:04:00,47.5,19.8,30.55,West,270,3.1,7.6,33,0.00,,,0.00,meteobridge,2013-11-29 20:04:00,
2013-11-29 15:10:00,48.4,20.7,30.55,South,180,4.5,4.5,33,0.00,,,0.00,meteobridge,2013-11-29 20:10:00,
2013-11-29 15:15:00,47.7,20.7,30.55,West,270,3.8,3.8,34,0.00,,,0.00,meteobridge,2013-11-29 20:15:00,
2013-11-29 15:21:00,48.6,20.8,30.55,South,180,2.2,4.5,33,0.00,,,0.00,meteobridge,2013-11-29 20:21:00,
2013-11-29 15:27:00,46.9,19.9,30.56,SE,135,2.2,3.8,34,0.00,,,0.00,meteobridge,2013-11-29 20:27:00,
2013-11-29 15:32:00,46.2,20.7,30.56,East,90,6.0,7.6,36,0.00,,,0.00,meteobridge,2013-11-29 20:32:00,
2013-11-29 15:38:00,47.3,22.3,30.56,NE,45,6.0,6.0,37,0.00,,,0.00,meteobridge,2013-11-29 20:38:00,
2013-11-29 15:44:00,45.3,21.2,30.56,NE,45,2.2,6.0,38,0.00,,,0.00,meteobridge,2013-11-29 20:44:00,
2013-11-29 15:49:00,45.7,21.6,30.57,North,0,1.6,5.4,38,0.00,,,0.00,meteobridge,2013-11-29 20:49:00,
2013-11-29 15:55:00,45.9,22.3,30.56,East,90,1.6,4.5,39,0.00,,,0.00,meteobridge,2013-11-29 20:55:00,
2013-11-29 16:01:00,45.1,21.7,30.56,North,0,3.1,3.8,39,0.00,,,0.00,meteobridge,2013-11-29 21:01:00,
2013-11-29 16:06:00,45.5,21.9,30.56,North,0,2.2,2.2,39,0.00,,,0.00,meteobridge,2013-11-29 21:06:00,
2013-11-29 16:12:00,44.8,21.9,30.56,North,0,2.2,2.2,40,0.00,,,0.00,meteobridge,2013-11-29 21:12:00,
2013-11-29 16:17:00,45.3,22.5,30.56,North,0,0.0,1.6,40,0.00,,,0.00,meteobridge,2013-11-29 21:17:00,
2013-11-29 16:23:00,43.2,21.6,30.57,East,90,0.7,2.2,42,0.00,,,0.00,meteobridge,2013-11-29 21:23:00,
2013-11-29 16:29:00,41.9,22.6,30.57,East,90,0.0,1.6,46,0.00,,,0.00,meteobridge,2013-11-29 21:29:00,
2013-11-29 16:34:00,41.5,23.7,30.58,West,270,0.0,0.0,49,0.00,,,0.00,meteobridge,2013-11-29 21:34:00,
2013-11-29 16:40:00,40.5,24.3,30.58,North,0,0.0,0.0,52,0.00,,,0.00,meteobridge,2013-11-29 21:40:00,
2013-11-29 16:46:00,39.2,25.2,30.58,West,270,0.0,0.0,57,0.00,,,0.00,meteobridge,2013-11-29 21:46:00,
2013-11-29 16:51:00,38.1,26.2,30.58,West,270,0.7,0.7,62,0.00,,,0.00,meteobridge,2013-11-29 21:51:00,
2013-11-29 16:56:00,37.4,25.9,30.58,North,0,0.0,0.0,63,0.00,,,0.00,meteobridge,2013-11-29 21:56:00,
2013-11-29 17:02:00,36.3,24.1,30.58,North,0,0.0,0.0,61,0.00,,,0.00,meteobridge,2013-11-29 22:02:00,
2013-11-29 17:07:00,35.2,24.6,30.58,North,0,0.0,0.0,65,0.00,,,0.00,meteobridge,2013-11-29 22:07:00,
2013-11-29 17:13:00,35.1,25.5,30.58,North,0,0.0,0.0,68,0.00,,,0.00,meteobridge,2013-11-29 22:13:00,
2013-11-29 17:19:00,34.7,25.9,30.58,North,0,0.0,0.0,70,0.00,,,0.00,meteobridge,2013-11-29 22:19:00,
2013-11-29 17:25:00,34.3,25.9,30.59,North,0,0.0,0.0,71,0.00,,,0.00,meteobridge,2013-11-29 22:25:00,
2013-11-29 17:30:00,34.2,25.0,30.59,North,0,0.0,0.0,69,0.00,,,0.00,meteobridge,2013-11-29 22:30:00,
2013-11-29 17:36:00,33.4,24.8,30.59,North,0,0.0,0.0,70,0.00,,,0.00,meteobridge,2013-11-29 22:36:00,
2013-11-29 17:41:00,33.1,24.4,30.59,North,0,0.0,0.0,70,0.00,,,0.00,meteobridge,2013-11-29 22:41:00,
2013-11-29 17:47:00,32.4,24.1,30.60,North,0,0.0,0.7,71,0.00,,,0.00,meteobridge,2013-11-29 22:47:00,
2013-11-29 17:53:00,31.5,23.9,30.60,North,0,0.0,0.0,73,0.00,,,0.00,meteobridge,2013-11-29 22:53:00,
2013-11-29 17:58:00,31.6,24.3,30.60,North,0,0.0,0.0,74,0.00,,,0.00,meteobridge,2013-11-29 22:58:00,
2013-11-29 18:04:00,31.1,24.1,30.60,North,0,0.0,0.0,75,0.00,,,0.00,meteobridge,2013-11-29 23:04:00,
2013-11-29 18:09:00,30.6,24.3,30.60,North,0,0.0,0.0,77,0.00,,,0.00,meteobridge,2013-11-29 23:09:00,
2013-11-29 18:14:00,29.8,24.1,30.60,North,0,0.0,0.0,79,0.00,,,0.00,meteobridge,2013-11-29 23:14:00,
2013-11-29 18:20:00,29.5,24.4,30.60,North,0,0.0,0.0,81,0.00,,,0.00,meteobridge,2013-11-29 23:20:00,
2013-11-29 18:25:00,29.1,24.3,30.60,North,0,0.0,0.0,82,0.00,,,0.00,meteobridge,2013-11-29 23:25:00,
2013-11-29 18:31:00,28.8,24.3,30.61,North,0,0.0,0.0,83,0.00,,,0.00,meteobridge,2013-11-29 23:31:00,
2013-11-29 18:36:00,29.5,25.2,30.61,North,0,0.0,0.0,84,0.00,,,0.00,meteobridge,2013-11-29 23:36:00,
2013-11-29 18:42:00,29.5,25.2,30.61,North,0,0.0,0.0,84,0.00,,,0.00,meteobridge,2013-11-29 23:42:00,
2013-11-29 18:48:00,29.1,24.6,30.61,North,0,0.0,0.0,83,0.00,,,0.00,meteobridge,2013-11-29 23:48:00,
2013-11-29 18:53:00,29.1,24.3,30.61,North,0,0.0,0.0,82,0.00,,,0.00,meteobridge,2013-11-29 23:53:00,
2013-11-29 18:59:00,28.4,23.5,30.61,North,0,0.0,0.0,82,0.00,,,0.00,meteobridge,2013-11-29 23:59:00,
2013-11-29 19:04:00,28.4,23.9,30.61,North,0,0.0,0.0,83,0.00,,,0.00,meteobridge,2013-11-30 00:04:00,
2013-11-29 19:09:00,28.4,23.9,30.62,North,0,0.0,0.0,83,0.00,,,0.00,meteobridge,2013-11-30 00:09:00,
2013-11-29 19:15:00,28.4,23.9,30.62,North,0,0.0,0.0,83,0.00,,,0.00,meteobridge,2013-11-30 00:15:00,
2013-11-29 19:21:00,27.9,22.3,30.62,North,0,0.0,0.0,79,0.00,,,0.00,meteobridge,2013-11-30 00:21:00,
2013-11-29 19:26:00,27.9,22.3,30.62,North,0,0.0,0.0,79,0.00,,,0.00,meteobridge,2013-11-30 00:26:00,
2013-11-29 19:31:00,27.9,22.5,30.62,North,0,0.0,0.0,80,0.00,,,0.00,meteobridge,2013-11-30 00:31:00,
2013-11-29 19:37:00,27.5,22.5,30.63,North,0,0.0,0.0,81,0.00,,,0.00,meteobridge,2013-11-30 00:37:00,
2013-11-29 19:43:00,27.7,22.8,30.62,North,0,0.0,0.0,82,0.00,,,0.00,meteobridge,2013-11-30 00:43:00,
2013-11-29 19:48:00,28.0,23.2,30.63,North,0,0.0,0.0,82,0.00,,,0.00,meteobridge,2013-11-30 00:48:00,
2013-11-29 19:54:00,28.0,23.0,30.63,North,0,0.0,0.0,81,0.00,,,0.00,meteobridge,2013-11-30 00:54:00,
2013-11-29 19:59:00,27.5,22.1,30.63,North,0,0.0,0.0,80,0.00,,,0.00,meteobridge,2013-11-30 00:59:00,
2013-11-29 20:05:00,27.3,21.9,30.63,North,0,0.0,0.0,80,0.00,,,0.00,meteobridge,2013-11-30 01:05:00,
2013-11-29 20:11:00,27.7,22.6,30.63,North,0,0.0,0.0,81,0.00,,,0.00,meteobridge,2013-11-30 01:11:00,
2013-11-29 20:16:00,27.3,21.9,30.63,North,0,0.0,0.0,80,0.00,,,0.00,meteobridge,2013-11-30 01:16:00,
2013-11-29 20:22:00,27.9,22.5,30.64,North,0,0.0,0.0,80,0.00,,,0.00,meteobridge,2013-11-30 01:22:00,
2013-11-29 20:28:00,27.9,22.5,30.64,North,0,0.0,0.0,80,0.00,,,0.00,meteobridge,2013-11-30 01:28:00,
2013-11-29 20:33:00,28.0,22.5,30.64,North,0,0.0,0.0,79,0.00,,,0.00,meteobridge,2013-11-30 01:33:00,
2013-11-29 20:39:00,28.0,22.1,30.64,North,0,0.0,0.0,78,0.00,,,0.00,meteobridge,2013-11-30 01:39:00,
2013-11-29 20:45:00,27.5,21.6,30.64,North,0,0.0,0.0,78,0.00,,,0.00,meteobridge,2013-11-30 01:45:00,
2013-11-29 20:50:00,27.3,21.4,30.64,North,0,0.0,0.0,78,0.00,,,0.00,meteobridge,2013-11-30 01:50:00,
2013-11-29 20:56:00,27.0,21.0,30.65,North,0,0.0,0.0,78,0.00,,,0.00,meteobridge,2013-11-30 01:56:00,
2013-11-29 21:02:00,27.1,21.6,30.65,North,0,0.0,0.0,79,0.00,,,0.00,meteobridge,2013-11-30 02:02:00,
2013-11-29 21:07:00,26.6,21.0,30.64,North,0,0.0,0.0,79,0.00,,,0.00,meteobridge,2013-11-30 02:07:00,
2013-11-29 21:13:00,26.2,20.8,30.65,North,0,0.0,0.0,80,0.00,,,0.00,meteobridge,2013-11-30 02:13:00,
2013-11-29 21:18:00,26.2,21.2,30.65,North,0,0.0,0.0,81,0.00,,,0.00,meteobridge,2013-11-30 02:18:00,
2013-11-29 21:24:00,26.2,21.2,30.65,North,0,0.0,0.0,81,0.00,,,0.00,meteobridge,2013-11-30 02:24:00,
2013-11-29 21:30:00,26.1,21.4,30.65,North,0,0.0,0.0,82,0.00,,,0.00,meteobridge,2013-11-30 02:30:00,
2013-11-29 21:35:00,26.2,21.6,30.65,North,0,0.0,0.0,82,0.00,,,0.00,meteobridge,2013-11-30 02:35:00,
2013-11-29 21:41:00,25.7,21.0,30.66,North,0,0.0,0.0,82,0.00,,,0.00,meteobridge,2013-11-30 02:41:00,
2013-11-29 21:47:00,26.2,21.6,30.66,North,0,0.0,0.0,82,0.00,,,0.00,meteobridge,2013-11-30 02:47:00,
2013-11-29 21:52:00,26.1,21.4,30.66,North,0,0.0,0.0,82,0.00,,,0.00,meteobridge,2013-11-30 02:52:00,
2013-11-29 21:57:00,26.2,21.6,30.66,North,0,0.0,0.0,82,0.00,,,0.00,meteobridge,2013-11-30 02:57:00,
2013-11-29 22:03:00,25.9,21.2,30.66,North,0,0.0,0.0,82,0.00,,,0.00,meteobridge,2013-11-30 03:03:00,
2013-11-29 22:09:00,25.5,20.8,30.66,North,0,0.0,0.0,82,0.00,,,0.00,meteobridge,2013-11-30 03:09:00,
2013-11-29 22:14:00,25.3,20.7,30.66,North,0,0.0,0.0,82,0.00,,,0.00,meteobridge,2013-11-30 03:14:00,
2013-11-29 22:20:00,25.7,21.2,30.66,North,0,0.0,0.0,83,0.00,,,0.00,meteobridge,2013-11-30 03:20:00,
2013-11-29 22:25:00,25.7,21.6,30.66,West,270,0.0,0.0,84,0.00,,,0.00,meteobridge,2013-11-30 03:25:00,
2013-11-29 22:31:00,25.3,21.2,30.66,West,270,0.0,0.0,84,0.00,,,0.00,meteobridge,2013-11-30 03:31:00,
2013-11-29 22:37:00,25.3,21.2,30.66,West,270,0.0,0.0,84,0.00,,,0.00,meteobridge,2013-11-30 03:37:00,
2013-11-29 22:42:00,25.5,21.6,30.66,West,270,0.0,0.0,85,0.00,,,0.00,meteobridge,2013-11-30 03:42:00,
2013-11-29 22:48:00,25.9,21.9,30.67,West,270,0.0,0.0,85,0.00,,,0.00,meteobridge,2013-11-30 03:48:00,
2013-11-29 22:54:00,25.7,21.2,30.67,West,270,0.0,0.0,83,0.00,,,0.00,meteobridge,2013-11-30 03:54:00,
2013-11-29 22:59:00,25.7,21.0,30.67,West,270,0.0,0.0,82,0.00,,,0.00,meteobridge,2013-11-30 03:59:00,
2013-11-29 23:05:00,25.7,21.0,30.66,West,270,0.0,0.0,82,0.00,,,0.00,meteobridge,2013-11-30 04:05:00,
2013-11-29 23:11:00,25.9,21.2,30.67,West,270,0.0,0.0,82,0.00,,,0.00,meteobridge,2013-11-30 04:11:00,
2013-11-29 23:16:00,26.2,21.2,30.66,West,270,0.0,0.0,81,0.00,,,0.00,meteobridge,2013-11-30 04:16:00,
2013-11-29 23:22:00,26.4,21.0,30.67,West,270,0.0,0.0,80,0.00,,,0.00,meteobridge,2013-11-30 04:22:00,
2013-11-29 23:27:00,26.6,21.0,30.66,West,270,0.0,0.0,79,0.00,,,0.00,meteobridge,2013-11-30 04:27:00,
2013-11-29 23:33:00,26.6,21.0,30.66,West,270,0.0,0.0,79,0.00,,,0.00,meteobridge,2013-11-30 04:33:00,
2013-11-29 23:39:00,26.8,20.8,30.66,West,270,0.0,0.0,78,0.00,,,0.00,meteobridge,2013-11-30 04:39:00,
2013-11-29 23:44:00,26.6,20.7,30.66,East,90,0.0,0.0,78,0.00,,,0.00,meteobridge,2013-11-30 04:44:00,
2013-11-29 23:50:00,27.3,21.4,30.66,North,0,0.7,3.1,78,0.00,,,0.00,meteobridge,2013-11-30 04:50:00,
2013-11-29 23:56:00,28.4,23.0,30.66,North,0,1.6,2.2,80,0.00,,,0.00,meteobridge,2013-11-30 04:56:00,